Time;durP1;ratioP1;P1;durP2;ratioP2;P2;SDS_P1;SDS_P2;PMS_P1;PMS_P2;Temp;Humidity;BMP_temperature;BMP_pressure;BME280_temperature;BME280_humidity;BME280_pressure;Samples;Min_cycle;Max_cycle;Signal;HPM_P1;HPM_P2
2023/10/09 00:02:14;;;;;;;1.90;1.70;;;11.50;1.00;;;;;;5124725;28;20041;-62
2023/10/09 00:04:45;;;;;;;2.13;1.77;;;11.50;1.00;;;;;;5138000;28;20045;-60
2023/10/09 00:07:23;;;;;;;2.33;1.50;;;11.50;1.00;;;;;;5169267;28;20036;-63
2023/10/09 00:09:57;;;;;;;2.25;1.58;;;11.40;1.00;;;;;;5166817;28;20149;-62
2023/10/09 00:12:32;;;;;;;2.10;1.67;;;11.50;1.00;;;;;;5179885;28;20033;-63
2023/10/09 00:15:11;;;;;;;3.20;1.95;;;11.50;1.00;;;;;;5189428;28;20069;-66
2023/10/09 00:17:46;;;;;;;1.75;1.58;;;11.40;4.70;;;;;;5156797;28;20053;-65
2023/10/09 00:20:25;;;;;;;2.45;1.65;;;11.50;15.70;;;;;;5156118;28;20171;-66
2023/10/09 00:22:57;;;;;;;2.05;1.58;;;11.50;1.00;;;;;;5164842;28;20029;-65
2023/10/09 00:25:30;;;;;;;2.75;1.70;;;11.50;1.00;;;;;;5182218;28;20025;-61
2023/10/09 00:28:05;;;;;;;1.80;1.67;;;11.40;1.00;;;;;;5154938;28;20048;-62
2023/10/09 00:30:46;;;;;;;1.95;1.77;;;11.40;11.50;;;;;;5170607;28;20033;-67
2023/10/09 00:33:22;;;;;;;2.65;2.00;;;11.40;1.30;;;;;;5156000;28;20559;-62
2023/10/09 00:35:56;;;;;;;2.33;1.85;;;11.40;1.00;;;;;;5189699;28;20085;-64
2023/10/09 00:38:49;;;;;;;2.75;1.90;;;11.40;1.00;;;;;;5162477;28;20045;-65
2023/10/09 00:41:25;;;;;;;2.30;2.00;;;11.40;1.00;;;;;;5177749;28;20048;-65
2023/10/09 00:43:59;;;;;;;2.03;1.83;;;11.40;1.00;;;;;;5172257;28;20033;-66
2023/10/09 00:46:34;;;;;;;4.20;2.05;;;11.40;1.00;;;;;;5171425;28;20150;-66
2023/10/09 00:49:11;;;;;;;2.58;1.63;;;11.40;1.00;;;;;;5173408;28;20033;-63
2023/10/09 00:51:56;;;;;;;1.98;1.85;;;11.40;1.00;;;;;;5156092;28;20045;-64
2023/10/09 00:54:35;;;;;;;;;;;11.50;1.30;;;;;;5166842;28;20055;-64
2023/10/09 00:57:07;;;;;;;2.80;1.92;;;11.40;1.00;;;;;;5158330;28;19919;-64
2023/10/09 00:59:43;;;;;;;2.97;2.15;;;11.50;28.50;;;;;;5182732;28;20079;-63
2023/10/09 01:02:19;;;;;;;2.42;2.05;;;11.50;8.40;;;;;;5336657;22;20036;-63
2023/10/09 01:04:51;;;;;;;2.05;1.65;;;11.50;3.00;;;;;;5215925;28;20045;-63
2023/10/09 01:07:31;;;;;;;2.03;1.85;;;11.50;33.20;;;;;;5219922;28;20476;-66
2023/10/09 01:10:35;;;;;;;3.45;1.98;;;11.50;47.90;;;;;;5229028;28;20044;-64
2023/10/09 01:13:01;;;;;;;2.25;1.73;;;11.40;57.20;;;;;;5204246;28;20481;-63
2023/10/09 01:15:43;;;;;;;2.60;1.63;;;11.50;48.10;;;;;;5209749;28;20040;-64
2023/10/09 01:18:15;;;;;;;4.65;2.40;;;11.50;26.20;;;;;;5231528;28;20088;-64
2023/10/09 01:20:46;;;;;;;2.00;1.80;;;11.50;18.80;;;;;;5228595;28;20090;-64
2023/10/09 01:23:18;;;;;;;3.13;2.25;;;11.50;28.10;;;;;;5212341;28;20108;-64
2023/10/09 01:25:53;;;;;;;3.67;1.80;;;11.50;1.00;;;;;;5230004;28;20354;-64
2023/10/09 01:28:29;;;;;;;;;;;11.50;16.80;;;;;;5217499;28;20112;-64
2023/10/09 01:31:01;;;;;;;2.97;1.88;;;11.50;1.00;;;;;;5232465;28;19934;-64
2023/10/09 01:33:35;;;;;;;3.13;1.98;;;11.40;1.00;;;;;;5233986;28;20024;-64
2023/10/09 01:36:15;;;;;;;;;;;11.40;1.00;;;;;;5216177;28;20043;-64
2023/10/09 01:38:48;;;;;;;2.85;2.00;;;11.40;1.00;;;;;;5200967;28;19908;-66
2023/10/09 01:41:20;;;;;;;4.25;2.58;;;11.40;1.00;;;;;;5232727;28;20028;-65
2023/10/09 01:43:56;;;;;;;2.83;2.28;;;11.40;1.00;;;;;;5191487;28;20094;-63
2023/10/09 01:46:33;;;;;;;2.30;2.05;;;11.40;10.60;;;;;;5219141;28;20038;-63
2023/10/09 01:49:17;;;;;;;2.50;1.70;;;11.40;1.00;;;;;;5215393;28;20040;-63
2023/10/09 01:51:50;;;;;;;4.40;1.90;;;11.40;1.00;;;;;;5229152;28;20462;-64
2023/10/09 01:54:36;;;;;;;3.17;1.92;;;11.50;1.00;;;;;;5198806;28;20050;-64
2023/10/09 01:57:12;;;;;;;2.63;2.13;;;11.50;1.00;;;;;;5220101;28;20020;-64
2023/10/09 01:59:49;;;;;;;3.17;2.05;;;11.50;1.00;;;;;;5230135;28;20032;-64
2023/10/09 02:02:27;;;;;;;2.58;1.80;;;11.60;1.00;;;;;;5223878;28;20048;-64
2023/10/09 02:07:44;;;;;;;2.45;2.00;;;11.60;1.00;;;;;;5196509;28;20040;-68
2023/10/09 02:13:09;;;;;;;1.75;1.50;;;11.50;1.00;;;;;;5231582;28;20028;-65
2023/10/09 02:18:26;;;;;;;2.38;1.65;;;11.40;1.00;;;;;;5216336;28;20031;-65
2023/10/09 02:23:41;;;;;;;4.05;2.10;;;11.40;1.00;;;;;;5210379;28;20294;-65
2023/10/09 02:26:25;;;;;;;2.22;1.73;;;11.40;1.00;;;;;;5192527;28;20037;-63
2023/10/09 02:29:03;;;;;;;1.55;1.45;;;11.40;1.00;;;;;;5208776;28;20033;-65
2023/10/09 02:31:47;;;;;;;3.30;1.77;;;11.40;1.00;;;;;;5208986;28;20378;-65
2023/10/09 02:34:29;;;;;;;2.08;1.65;;;11.40;1.00;;;;;;5228269;28;20329;-63
2023/10/09 02:37:12;;;;;;;2.60;2.03;;;11.30;1.00;;;;;;5181293;28;20045;-66
2023/10/09 02:39:48;;;;;;;2.47;2.10;;;11.20;1.00;;;;;;5182233;28;20046;-66
2023/10/09 02:42:28;;;;;;;2.03;1.70;;;11.20;1.00;;;;;;5233207;28;20047;-63
2023/10/09 02:45:00;;;;;;;1.75;1.60;;;11.20;31.60;;;;;;5198337;28;20646;-63
2023/10/09 02:47:38;;;;;;;3.55;2.15;;;11.20;1.70;;;;;;5190632;28;20536;-64
2023/10/09 02:50:12;;;;;;;2.90;1.90;;;11.30;3.00;;;;;;5213177;28;20033;-64
2023/10/09 02:53:18;;;;;;;3.83;1.60;;;11.20;40.70;;;;;;5209045;28;20039;-63
2023/10/09 02:58:48;;;;;;;1.77;1.50;;;11.20;29.90;;;;;;5225575;28;20077;-63
2023/10/09 03:01:19;;;;;;;2.28;1.77;;;11.20;48.30;;;;;;5230180;28;20021;-63
2023/10/09 03:04:02;;;;;;;2.70;1.90;;;11.20;18.80;;;;;;5195632;28;20325;-63
2023/10/09 03:06:43;;;;;;;4.00;2.00;;;11.30;8.10;;;;;;5210856;28;20621;-63
2023/10/09 03:09:26;;;;;;;2.80;2.10;;;11.30;1.00;;;;;;5210228;28;20043;-66
2023/10/09 03:12:09;;;;;;;1.75;1.60;;;11.20;1.00;;;;;;5214184;28;20059;-66
2023/10/09 03:14:44;;;;;;;2.63;2.10;;;11.20;1.00;;;;;;5215437;28;20040;-63
2023/10/09 03:17:21;;;;;;;1.98;1.63;;;11.20;1.00;;;;;;5194878;28;20469;-65
2023/10/09 03:19:55;;;;;;;2.63;1.70;;;11.20;1.00;;;;;;5204052;28;20051;-65
2023/10/09 03:22:27;;;;;;;3.10;2.20;;;11.20;1.00;;;;;;5215008;28;20044;-63
2023/10/09 03:25:00;;;;;;;9.57;2.28;;;11.20;1.00;;;;;;5215644;28;20112;-63
2023/10/09 03:27:32;;;;;;;3.65;2.40;;;11.20;1.00;;;;;;5232545;28;20031;-63
2023/10/09 03:30:10;;;;;;;2.55;2.00;;;11.10;1.00;;;;;;5196575;28;20135;-63
2023/10/09 03:32:50;;;;;;;3.53;2.03;;;11.00;1.00;;;;;;5194986;28;20041;-63
2023/10/09 03:35:26;;;;;;;2.97;1.77;;;10.90;1.00;;;;;;5195866;28;20508;-63
2023/10/09 03:38:12;;;;;;;4.15;2.17;;;10.90;1.00;;;;;;5211981;28;20843;-64
2023/10/09 03:40:47;;;;;;;3.60;1.95;;;10.90;1.00;;;;;;5193177;28;20029;-64
2023/10/09 03:43:22;;;;;;;2.90;1.73;;;10.90;1.00;;;;;;5213345;28;20261;-64
2023/10/09 03:45:57;;;;;;;3.63;2.13;;;10.90;1.00;;;;;;5208351;28;20037;-64
2023/10/09 03:48:32;;;;;;;3.85;2.28;;;10.90;1.00;;;;;;5209673;28;20041;-64
2023/10/09 03:51:11;;;;;;;4.63;2.45;;;10.80;1.00;;;;;;5211083;28;20025;-64
2023/10/09 03:53:44;;;;;;;2.53;2.00;;;10.80;1.00;;;;;;5197878;28;20029;-64
2023/10/09 03:56:17;;;;;;;3.05;2.15;;;10.70;1.10;;;;;;5208634;28;20351;-64
2023/10/09 03:58:54;;;;;;;2.85;2.03;;;10.70;53.10;;;;;;5175916;28;20044;-64
2023/10/09 04:01:29;;;;;;;3.55;2.45;;;10.60;79.30;;;;;;5213519;28;20050;-64
2023/10/09 04:04:06;;;;;;;2.95;2.30;;;10.60;81.90;;;;;;5211597;28;20051;-64
2023/10/09 04:06:38;;;;;;;3.85;2.50;;;10.60;99.70;;;;;;5212474;28;20036;-64
2023/10/09 04:15:01;;;;;;;4.22;2.17;;;10.50;99.90;;;;;;5198530;28;20050;-65
2023/10/09 04:17:33;;;;;;;4.18;2.40;;;10.50;99.90;;;;;;5210884;28;20054;-66
2023/10/09 04:23:05;;;;;;;6.60;2.95;;;10.40;99.90;;;;;;5200528;28;20028;-64
2023/10/09 04:25:50;;;;;;;4.07;2.25;;;10.30;99.90;;;;;;5212332;28;20618;-65
2023/10/09 04:28:23;;;;;;;2.80;2.15;;;10.30;99.90;;;;;;5172943;28;20044;-64
2023/10/09 04:31:02;;;;;;;2.50;1.85;;;10.20;99.90;;;;;;5205868;28;20084;-64
2023/10/09 04:33:54;;;;;;;2.80;2.45;;;10.20;99.90;;;;;;5208965;28;20045;-64
2023/10/09 04:36:35;;;;;;;2.55;2.35;;;10.20;99.90;;;;;;5223171;28;20033;-63
2023/10/09 04:44:29;;;;;;;4.53;2.38;;;10.00;99.90;;;;;;5205439;28;20049;-63
2023/10/09 04:52:51;;;;;;;2.72;1.90;;;9.90;99.90;;;;;;5193206;28;20036;-64
2023/10/09 04:58:00;;;;;;;3.13;2.25;;;9.80;99.90;;;;;;5216009;28;20028;-64
2023/10/09 05:03:07;;;;;;;2.92;2.50;;;9.70;99.90;;;;;;5205791;28;20049;-64
2023/10/09 05:08:21;;;;;;;5.68;2.45;;;9.80;99.90;;;;;;5182300;28;20037;-63
2023/10/09 05:16:19;;;;;;;3.67;1.88;;;9.90;99.90;;;;;;5196296;28;20289;-65
2023/10/09 05:18:59;;;;;;;2.50;1.98;;;9.90;99.90;;;;;;5181285;28;20033;-65
2023/10/09 05:24:19;;;;;;;2.33;1.70;;;10.00;99.90;;;;;;5214551;28;20041;-65
2023/10/09 05:26:53;;;;;;;2.45;1.80;;;10.10;99.90;;;;;;5214148;28;20028;-65
2023/10/09 05:37:33;;;;;;;3.08;1.98;;;10.00;99.90;;;;;;5205775;28;20041;-64
2023/10/09 05:40:22;;;;;;;2.08;1.77;;;10.00;99.90;;;;;;5217858;28;20281;-64
2023/10/09 05:43:05;;;;;;;3.65;2.38;;;10.00;99.90;;;;;;5203494;28;20033;-63
2023/10/09 05:51:41;;;;;;;3.53;1.90;;;10.20;99.90;;;;;;5166261;28;20415;-64
2023/10/09 05:58:19;;;;;;;;;;;10.40;16.20;;;;;;5200866;28;20192;-63
2023/10/09 06:05:42;;;;;;;;;;;10.50;1.00;;;;;;5200580;28;20357;-64
2023/10/09 06:08:16;;;;;;;4.32;1.92;;;10.70;1.00;;;;;;5196953;28;19909;-63
2023/10/09 06:10:48;;;;;;;4.60;2.10;;;10.80;1.00;;;;;;5196961;28;20325;-64
2023/10/09 06:16:41;;;;;;;4.57;2.30;;;11.20;1.00;;;;;;5212758;28;20305;-64
2023/10/09 06:27:56;;;;;;;3.40;2.08;;;11.60;1.00;;;;;;5216219;28;20041;-64
2023/10/09 06:30:24;;;;;;;6.38;1.73;;;11.70;1.00;;;;;;5215636;28;20036;-64
2023/10/09 06:33:04;;;;;;;2.78;2.05;;;11.70;1.00;;;;;;5235722;28;20028;-64
2023/10/09 06:35:39;;;;;;;2.30;1.42;;;11.70;1.00;;;;;;5185134;28;20035;-63
2023/10/09 06:38:23;;;;;;;3.45;1.98;;;11.90;1.00;;;;;;5216487;28;20044;-65
2023/10/09 06:43:43;;;;;;;2.50;2.17;;;11.90;1.00;;;;;;5214169;28;20031;-65
2023/10/09 06:46:43;;;;;;;3.40;2.35;;;12.30;1.00;;;;;;5196834;28;20058;-65
2023/10/09 06:49:29;;;;;;;3.05;2.00;;;12.50;99.90;;;;;;5235311;28;20208;-64
2023/10/09 06:52:15;;;;;;;3.88;2.30;;;12.80;1.00;;;;;;5183129;28;20328;-64
2023/10/09 06:54:51;;;;;;;3.22;2.70;;;13.10;1.00;;;;;;5232112;28;20245;-64
2023/10/09 06:57:43;;;;;;;5.57;2.55;;;13.00;1.00;;;;;;5183257;28;20043;-64
2023/10/09 07:03:11;;;;;;;3.65;2.50;;;13.30;1.00;;;;;;5204815;28;20033;-64
2023/10/09 07:06:04;;;;;;;2.72;2.30;;;13.40;1.00;;;;;;5197455;28;20033;-66
2023/10/09 07:08:44;;;;;;;3.13;2.55;;;13.50;1.00;;;;;;5199538;28;20301;-66
2023/10/09 07:11:21;;;;;;;2.80;2.10;;;13.40;99.90;;;;;;5183074;28;20187;-63
2023/10/09 07:13:55;;;;;;;;;;;13.40;1.00;;;;;;5197979;28;20037;-66
2023/10/09 07:16:38;;;;;;;4.03;2.33;;;13.50;99.90;;;;;;5210043;28;19915;-65
2023/10/09 07:19:09;;;;;;;3.67;2.08;;;13.40;1.00;;;;;;5177018;28;20047;-65
2023/10/09 07:21:53;;;;;;;3.47;2.50;;;13.40;8.70;;;;;;5181923;28;20041;-66
2023/10/09 07:24:37;;;;;;;2.78;2.05;;;13.70;1.00;;;;;;5206221;28;20300;-65
2023/10/09 07:27:43;;;;;;;3.37;2.03;;;14.00;11.30;;;;;;5214907;28;20182;-65
2023/10/09 07:38:37;;;;;;;2.53;2.25;;;14.60;1.00;;;;;;5200356;28;20036;-67
2023/10/09 07:49:29;;;;;;;5.07;2.70;;;14.90;99.90;;;;;;5149368;28;20056;-67
2023/10/09 07:52:05;;;;;;;8.25;2.53;;;15.10;1.00;;;;;;5150490;28;20034;-64
2023/10/09 07:54:49;;;;;;;6.10;2.58;;;15.10;1.00;;;;;;5133379;28;20052;-66
2023/10/09 07:57:29;;;;;;;2.40;2.20;;;14.90;1.00;;;;;;5134713;28;20044;-67
2023/10/09 08:00:12;;;;;;;7.00;2.35;;;15.10;1.00;;;;;;5164908;28;20281;-65
2023/10/09 08:02:43;;;;;;;4.50;2.40;;;15.40;1.00;;;;;;5151189;28;20048;-65
2023/10/09 08:05:22;;;;;;;8.50;2.17;;;15.80;1.00;;;;;;5153113;28;20022;-66
2023/10/09 08:08:17;;;;;;;4.28;2.33;;;16.10;1.00;;;;;;5150509;28;20054;-64
2023/10/09 08:13:56;;;;;;;7.72;2.92;;;16.20;93.40;;;;;;5117976;28;20102;-64
2023/10/09 08:16:36;;;;;;;4.50;2.55;;;16.20;99.90;;;;;;5155409;28;20254;-65
2023/10/09 08:22:42;;;;;;;4.03;2.33;;;16.50;1.00;;;;;;5214224;28;20321;-64
2023/10/09 08:25:32;;;;;;;2.88;2.00;;;16.50;1.00;;;;;;5199216;28;20060;-65
2023/10/09 08:31:18;;;;;;;5.35;2.42;;;17.00;99.90;;;;;;5132271;28;20238;-64
2023/10/09 08:34:01;;;;;;;5.00;2.28;;;17.40;99.90;;;;;;5134065;28;20181;-66
2023/10/09 08:36:40;;;;;;;2.28;1.92;;;17.60;99.90;;;;;;5116029;28;20095;-67
2023/10/09 08:39:25;;;;;;;2.90;2.30;;;17.80;99.90;;;;;;5148336;28;20034;-67
2023/10/09 08:42:01;;;;;;;2.03;1.77;;;17.90;99.90;;;;;;5134033;28;20038;-66
2023/10/09 08:44:37;;;;;;;2.78;2.33;;;18.50;99.90;;;;;;5130716;28;20034;-68
2023/10/09 08:47:10;;;;;;;4.25;3.08;;;18.30;99.90;;;;;;5128601;28;20038;-67
2023/10/09 08:49:48;;;;;;;2.20;2.00;;;18.30;99.90;;;;;;5105812;28;20338;-68
2023/10/09 08:52:23;;;;;;;3.53;2.05;;;18.70;99.90;;;;;;5139529;28;20378;-68
2023/10/09 08:54:54;;;;;;;2.05;1.92;;;18.90;99.90;;;;;;5127332;28;20373;-66
2023/10/09 08:57:33;;;;;;;2.75;2.00;;;18.50;99.90;;;;;;5133676;28;20069;-69
2023/10/09 09:00:11;;;;;;;4.53;2.40;;;18.80;99.90;;;;;;5104984;28;20069;-64
2023/10/09 09:02:45;;;;;;;2.47;1.95;;;19.40;99.90;;;;;;5154860;28;20348;-66
2023/10/09 09:05:18;;;;;;;3.72;2.17;;;19.30;99.90;;;;;;5158784;28;20050;-66
2023/10/09 09:07:56;;;;;;;4.05;2.10;;;19.20;99.90;;;;;;5160513;28;20070;-65
2023/10/09 09:10:35;;;;;;;7.20;2.78;;;19.60;99.90;;;;;;5177915;28;20036;-65
2023/10/09 09:13:18;;;;;;;4.97;2.17;;;19.30;99.90;;;;;;5194876;28;20032;-66
2023/10/09 09:15:55;;;;;;;5.55;2.08;;;19.50;99.90;;;;;;5197950;28;20044;-65
2023/10/09 09:18:31;;;;;;;6.45;2.30;;;19.60;1.00;;;;;;5174555;28;20048;-66
2023/10/09 09:21:22;;;;;;;4.72;1.90;;;19.90;99.90;;;;;;5200997;28;20309;-66
2023/10/09 09:24:01;;;;;;;4.57;2.03;;;20.00;1.00;;;;;;5181227;28;20322;-66
2023/10/09 09:26:44;;;;;;;6.00;2.42;;;20.50;1.00;;;;;;5189305;28;20041;-65
2023/10/09 09:29:23;;;;;;;2.78;1.90;;;21.10;1.00;;;;;;5210599;28;20029;-66
2023/10/09 09:32:15;;;;;;;4.40;2.42;;;21.40;99.90;;;;;;5211247;28;20048;-65
2023/10/09 09:34:56;;;;;;;4.10;2.10;;;21.70;99.90;;;;;;5214034;28;20032;-68
2023/10/09 09:37:35;;;;;;;3.60;1.83;;;22.00;99.90;;;;;;5204581;28;20052;-67
2023/10/09 09:40:29;;;;;;;5.32;2.15;;;21.80;1.00;;;;;;5167253;28;20044;-67
2023/10/09 09:43:05;;;;;;;2.22;1.60;;;22.00;1.00;;;;;;5209881;28;20267;-68
2023/10/09 09:45:38;;;;;;;5.25;1.65;;;22.20;99.90;;;;;;5198295;28;20040;-66
2023/10/09 09:48:10;;;;;;;5.45;1.88;;;22.40;99.90;;;;;;5207841;28;20040;-66
2023/10/09 09:50:53;;;;;;;3.47;1.60;;;22.90;99.90;;;;;;5208799;28;20329;-68
2023/10/09 09:53:30;;;;;;;3.75;1.60;;;23.50;99.90;;;;;;5236232;28;20187;-67
2023/10/09 09:56:04;;;;;;;2.17;1.55;;;24.20;99.90;;;;;;5200525;28;20037;-68
2023/10/09 09:58:42;;;;;;;2.33;1.48;;;24.80;99.90;;;;;;5194238;28;20024;-67
2023/10/09 10:01:24;;;;;;;3.10;2.03;;;25.10;99.90;;;;;;5203681;28;20021;-68
2023/10/09 10:04:13;;;;;;;3.80;1.88;;;25.20;99.90;;;;;;5198616;28;20044;-66
2023/10/09 10:06:47;;;;;;;4.70;2.28;;;25.50;99.90;;;;;;5197040;28;20039;-67
2023/10/09 10:09:44;;;;;;;2.88;1.98;;;25.70;99.90;;;;;;5199457;28;20063;-67
2023/10/09 10:12:46;;;;;;;5.63;1.42;;;25.90;99.90;;;;;;5194316;28;20039;-67
2023/10/09 10:15:17;;;;;;;4.00;2.10;;;26.20;99.90;;;;;;5216446;28;20552;-68
2023/10/09 10:18:18;;;;;;;3.90;1.52;;;26.80;1.00;;;;;;5213513;28;20041;-66
2023/10/09 10:21:44;;;;;;;5.32;1.70;;;26.70;1.00;;;;;;5198381;28;20041;-67
2023/10/09 10:24:29;;;;;;;3.85;1.50;;;26.60;1.00;;;;;;5195064;28;20074;-67
2023/10/09 10:27:44;;;;;;;2.70;1.98;;;26.90;1.00;;;;;;5214426;28;20029;-66
2023/10/09 10:30:23;;;;;;;3.50;2.22;;;27.50;1.00;;;;;;5207039;28;20040;-69
2023/10/09 10:33:09;;;;;;;6.93;2.40;;;26.10;1.00;;;;;;5188551;28;20048;-65
2023/10/09 10:38:36;;;;;;;3.65;1.58;;;24.70;1.00;;;;;;5219013;28;20217;-66
2023/10/09 10:41:22;;;;;;;3.30;1.80;;;23.60;1.00;;;;;;5235363;28;20043;-67
2023/10/09 10:43:59;;;;;;;2.65;1.75;;;23.10;1.00;;;;;;5223158;28;20199;-66
2023/10/09 10:46:41;;;;;;;12.60;2.00;;;22.60;1.00;;;;;;5210258;28;20254;-67
2023/10/09 10:49:18;;;;;;;4.47;1.98;;;22.60;1.00;;;;;;5214428;28;20036;-66
2023/10/09 10:52:01;;;;;;;4.10;1.70;;;22.80;1.00;;;;;;5195979;28;20045;-65
2023/10/09 10:57:30;;;;;;;3.58;2.00;;;23.20;1.00;;;;;;5214777;28;20313;-66
2023/10/09 11:03:19;;;;;;;6.23;1.90;;;23.50;1.00;;;;;;5122345;28;20058;-67
2023/10/09 11:05:50;;;;;;;9.18;2.20;;;24.10;1.00;;;;;;5132970;28;20042;-65
2023/10/09 11:08:32;;;;;;;5.38;2.03;;;23.90;1.00;;;;;;5192722;28;20040;-69
2023/10/09 11:11:16;;;;;;;3.88;2.28;;;23.00;1.00;;;;;;5201315;28;20344;-67
2023/10/09 11:14:05;;;;;;;7.07;1.90;;;22.10;99.90;;;;;;5190664;28;20047;-67
2023/10/09 11:16:42;;;;;;;9.45;2.58;;;21.50;99.90;;;;;;5214969;28;20345;-65
2023/10/09 11:19:31;;;;;;;8.40;2.58;;;20.90;99.90;;;;;;5225805;28;20250;-66
2023/10/09 11:24:43;;;;;;;5.03;2.20;;;20.20;99.90;;;;;;5215197;28;20324;-66
2023/10/09 11:27:24;;;;;;;8.05;2.53;;;19.70;99.90;;;;;;5183049;28;20353;-68
2023/10/09 11:30:05;;;;;;;5.90;2.63;;;19.50;99.90;;;;;;5168313;28;20041;-66
2023/10/09 11:32:42;;;;;;;7.95;2.28;;;19.40;99.90;;;;;;5183607;28;20054;-66
2023/10/09 11:35:27;;;;;;;10.85;2.60;;;19.30;99.90;;;;;;5188992;28;20044;-66
2023/10/09 11:38:20;;;;;;;9.55;2.70;;;19.20;91.90;;;;;;5199058;28;20028;-65
2023/10/09 11:43:57;;;;;;;8.48;2.67;;;19.20;1.00;;;;;;5171803;28;20058;-70
2023/10/09 11:46:50;;;;;;;12.38;2.30;;;19.20;1.00;;;;;;5209940;28;20035;-66
2023/10/09 11:54:45;;;;;;;4.40;2.58;;;18.70;1.00;;;;;;5198000;28;20037;-65
2023/10/09 11:57:28;;;;;;;8.52;2.90;;;18.60;99.90;;;;;;5213911;28;20035;-65
2023/10/09 12:00:10;;;;;;;4.10;2.30;;;18.40;1.00;;;;;;5199912;28;20033;-67
2023/10/09 12:02:44;;;;;;;6.82;3.10;;;18.00;1.00;;;;;;5222995;28;20036;-66
2023/10/09 12:05:19;;;;;;;;;;;17.70;99.90;;;;;;5172515;28;20224;-66
2023/10/09 12:07:56;;;;;;;11.23;3.45;;;17.40;99.90;;;;;;5209950;28;19920;-66
2023/10/09 12:10:29;;;;;;;5.05;2.88;;;17.30;1.00;;;;;;5209704;28;20040;-66
2023/10/09 12:13:04;;;;;;;8.68;3.17;;;17.30;1.00;;;;;;5198956;28;20045;-66
2023/10/09 12:15:38;;;;;;;9.77;3.05;;;17.30;1.00;;;;;;5181971;28;20048;-66
2023/10/09 12:18:15;;;;;;;5.90;3.22;;;17.40;1.00;;;;;;5208075;28;20028;-66
2023/10/09 12:20:50;;;;;;;7.95;3.17;;;17.60;1.00;;;;;;5232917;28;20038;-67
2023/10/09 12:23:27;;;;;;;10.00;2.90;;;17.80;1.00;;;;;;5214592;28;20025;-66
2023/10/09 12:25:59;;;;;;;5.20;2.88;;;18.30;99.90;;;;;;5197973;28;20036;-68
2023/10/09 12:28:34;;;;;;;5.68;3.00;;;18.70;99.90;;;;;;5204105;28;20501;-69
2023/10/09 12:31:06;;;;;;;5.80;3.20;;;19.00;1.00;;;;;;5186329;28;20056;-66
2023/10/09 12:33:39;;;;;;;8.18;2.72;;;19.20;1.00;;;;;;5218529;28;20048;-65
2023/10/09 12:36:20;;;;;;;4.75;2.15;;;19.40;1.00;;;;;;5220596;28;20347;-66
2023/10/09 12:38:58;;;;;;;7.70;3.28;;;19.30;99.90;;;;;;5200979;28;20048;-67
2023/10/09 12:41:35;;;;;;;6.05;3.28;;;18.60;1.00;;;;;;5230927;28;20462;-67
2023/10/09 12:44:14;;;;;;;7.53;3.13;;;18.00;1.00;;;;;;5193511;28;20040;-67
2023/10/09 12:46:52;;;;;;;6.78;3.53;;;17.60;1.00;;;;;;5183682;28;20033;-66
2023/10/09 12:49:26;;;;;;;10.27;3.25;;;17.70;54.20;;;;;;5211651;28;20040;-67
2023/10/09 12:51:58;;;;;;;11.00;3.65;;;18.00;1.00;;;;;;5214890;28;20028;-67
2023/10/09 12:54:31;;;;;;;11.30;3.80;;;17.70;1.00;;;;;;5197976;28;20052;-66
2023/10/09 12:57:13;;;;;;;9.93;3.65;;;17.30;1.00;;;;;;5232174;28;20489;-67
2023/10/09 12:59:48;;;;;;;7.03;3.08;;;17.00;1.00;;;;;;5210318;28;20039;-69
2023/10/09 13:02:29;;;;;;;7.45;3.35;;;16.70;99.90;;;;;;5232738;28;20040;-66
2023/10/09 13:05:04;;;;;;;8.20;4.45;;;16.50;99.90;;;;;;5241931;28;20028;-69
2023/10/09 13:07:41;;;;;;;8.13;3.85;;;16.40;99.90;;;;;;5198631;28;20028;-68
2023/10/09 13:10:14;;;;;;;5.75;3.40;;;16.40;99.90;;;;;;5181267;28;20038;-67
2023/10/09 13:12:55;;;;;;;8.02;4.18;;;16.40;99.90;;;;;;5197650;28;20032;-66
2023/10/09 13:15:41;;;;;;;10.35;4.00;;;16.30;99.90;;;;;;5210798;28;20040;-69
2023/10/09 13:18:15;;;;;;;9.57;3.70;;;16.30;99.90;;;;;;5214651;28;20044;-67
2023/10/09 13:20:47;;;;;;;9.40;4.50;;;16.30;99.90;;;;;;5200847;28;20044;-68
2023/10/09 13:23:21;;;;;;;10.38;3.90;;;16.30;99.90;;;;;;5235175;28;20047;-68
2023/10/09 13:26:08;;;;;;;9.60;4.40;;;16.20;99.90;;;;;;5223628;28;20056;-69
2023/10/09 13:28:40;;;;;;;11.27;4.93;;;16.20;99.90;;;;;;5210684;28;20044;-68
2023/10/09 13:31:15;;;;;;;12.90;3.70;;;16.10;99.90;;;;;;5213677;28;20420;-68
2023/10/09 13:33:56;;;;;;;9.90;4.35;;;16.10;99.90;;;;;;5169606;28;20399;-68
2023/10/09 13:36:31;;;;;;;7.40;3.72;;;15.90;99.90;;;;;;5192519;28;20058;-67
2023/10/09 13:41:58;;;;;;;10.75;4.22;;;15.70;99.90;;;;;;5209586;28;20040;-70
2023/10/09 13:44:33;;;;;;;9.85;4.80;;;15.60;99.90;;;;;;5224384;28;20398;-69
2023/10/09 13:47:05;;;;;;;9.27;5.30;;;15.50;99.90;;;;;;5189348;28;20047;-65
2023/10/09 13:49:44;;;;;;;9.82;4.63;;;15.40;99.90;;;;;;5209206;28;20035;-66
2023/10/09 13:52:18;;;;;;;10.10;4.90;;;15.40;99.90;;;;;;5230866;28;20037;-66
2023/10/09 13:54:50;;;;;;;7.97;4.53;;;15.40;99.90;;;;;;5213567;28;20032;-67
2023/10/09 13:57:30;;;;;;;15.18;4.75;;;15.30;99.90;;;;;;5189807;28;20040;-68
2023/10/09 14:00:10;;;;;;;9.07;4.28;;;15.30;99.90;;;;;;5192747;28;20046;-66
2023/10/09 14:02:42;;;;;;;15.02;4.45;;;15.30;99.90;;;;;;5194163;28;20046;-65
2023/10/09 14:05:16;;;;;;;13.23;3.70;;;15.30;99.90;;;;;;5209557;28;20033;-66
2023/10/09 14:07:48;;;;;;;6.18;3.45;;;15.30;99.90;;;;;;5224558;28;20050;-65
2023/10/09 14:10:25;;;;;;;9.32;3.25;;;15.30;99.90;;;;;;5211339;28;20048;-70
2023/10/09 14:12:57;;;;;;;10.18;3.92;;;15.30;99.90;;;;;;5176783;28;20325;-67
2023/10/09 14:15:29;;;;;;;6.93;4.22;;;15.30;99.90;;;;;;5227463;28;20138;-66
2023/10/09 14:18:08;;;;;;;8.38;3.80;;;15.20;99.90;;;;;;5175636;28;20056;-66
2023/10/09 14:20:43;;;;;;;8.88;3.55;;;15.10;99.90;;;;;;5204757;28;20070;-66
2023/10/09 14:23:20;;;;;;;9.38;4.10;;;15.10;99.90;;;;;;5209410;28;20332;-66
2023/10/09 14:25:56;;;;;;;6.25;3.70;;;15.10;99.90;;;;;;5206196;28;20049;-66
2023/10/09 14:28:28;;;;;;;9.02;3.70;;;15.00;99.90;;;;;;5210718;28;20016;-66
2023/10/09 14:31:04;;;;;;;13.57;5.03;;;15.00;99.90;;;;;;5176490;28;20037;-66
2023/10/09 14:33:36;;;;;;;12.77;4.30;;;15.00;99.90;;;;;;5193178;28;20032;-67
2023/10/09 14:36:14;;;;;;;9.65;4.03;;;15.00;99.90;;;;;;5189881;28;20497;-67
2023/10/09 14:38:52;;;;;;;8.73;4.47;;;15.00;99.90;;;;;;5227047;28;20036;-68
2023/10/09 14:41:25;;;;;;;8.23;4.78;;;15.00;99.90;;;;;;5187166;28;20037;-68
2023/10/09 14:43:58;;;;;;;7.47;4.22;;;14.90;99.90;;;;;;5208498;28;20032;-68
2023/10/09 14:46:30;;;;;;;12.73;3.88;;;15.00;99.90;;;;;;5193258;28;20609;-65
2023/10/09 14:49:01;;;;;;;8.13;4.18;;;15.00;99.90;;;;;;5223439;28;20028;-68
2023/10/09 14:51:33;;;;;;;15.88;4.85;;;15.00;99.90;;;;;;5200002;28;20058;-66
2023/10/09 14:54:07;;;;;;;9.98;5.10;;;15.10;99.90;;;;;;5194947;28;20047;-67
2023/10/09 14:56:42;;;;;;;8.68;4.18;;;15.10;99.90;;;;;;5205801;28;20044;-67
2023/10/09 14:59:14;;;;;;;12.98;5.32;;;15.10;99.90;;;;;;5208287;28;20032;-67
2023/10/09 15:01:53;;;;;;;14.33;5.27;;;15.20;99.90;;;;;;5223748;28;20186;-68
2023/10/09 15:04:25;;;;;;;9.48;3.90;;;15.20;99.90;;;;;;5214528;28;20273;-67
2023/10/09 15:07:01;;;;;;;7.75;3.58;;;15.20;99.90;;;;;;5194861;28;20043;-66
2023/10/09 15:09:41;;;;;;;8.15;4.05;;;15.20;99.90;;;;;;5187936;28;20098;-67
2023/10/09 15:12:15;;;;;;;13.55;4.10;;;15.20;99.90;;;;;;5194885;28;20048;-65
2023/10/09 15:14:53;;;;;;;;;;;15.10;99.90;;;;;;5207369;28;20024;-65
2023/10/09 15:17:24;;;;;;;11.48;3.40;;;15.10;99.90;;;;;;5199753;28;19919;-66
2023/10/09 15:20:02;;;;;;;10.88;4.47;;;15.10;99.90;;;;;;5222613;28;20044;-66
2023/10/09 15:22:36;;;;;;;8.10;3.75;;;15.20;99.90;;;;;;5166450;28;20040;-67
2023/10/09 15:25:14;;;;;;;9.90;4.43;;;15.20;99.90;;;;;;5200445;28;20429;-67
2023/10/09 15:27:50;;;;;;;10.73;4.25;;;15.20;99.90;;;;;;5175698;28;20032;-68
2023/10/09 15:30:26;;;;;;;9.07;3.92;;;15.20;99.90;;;;;;5191139;28;20253;-68
2023/10/09 15:33:01;;;;;;;10.30;4.40;;;15.20;99.90;;;;;;5194952;28;20122;-68
2023/10/09 15:35:35;;;;;;;10.75;4.63;;;15.20;99.90;;;;;;5173974;28;20703;-67
2023/10/09 15:38:07;;;;;;;;;;;15.20;99.90;;;;;;5211562;28;20036;-67
2023/10/09 15:40:47;;;;;;;7.38;4.10;;;15.20;99.90;;;;;;5203521;28;20374;-67
2023/10/09 15:43:22;;;;;;;10.68;3.88;;;15.10;99.90;;;;;;5186736;28;20073;-66
2023/10/09 15:45:53;;;;;;;;;;;15.10;99.90;;;;;;5222092;28;20471;-68
2023/10/09 15:48:27;;;;;;;9.15;3.78;;;15.10;99.90;;;;;;5205036;28;19920;-66
2023/10/09 15:51:00;;;;;;;9.43;4.22;;;15.10;99.90;;;;;;5193196;28;20570;-67
2023/10/09 15:53:34;;;;;;;10.00;3.97;;;15.10;99.90;;;;;;5211452;28;20044;-66
2023/10/09 15:56:08;;;;;;;9.30;4.90;;;15.00;99.90;;;;;;5215554;28;20035;-69
2023/10/09 15:58:43;;;;;;;6.88;3.83;;;15.00;99.90;;;;;;5183523;28;20343;-68
2023/10/09 16:01:19;;;;;;;7.97;3.63;;;15.00;99.90;;;;;;5191511;28;20046;-66
2023/10/09 16:03:53;;;;;;;10.18;3.78;;;15.00;99.90;;;;;;5209397;28;20036;-66
2023/10/09 16:06:31;;;;;;;9.35;4.60;;;15.00;99.90;;;;;;5179330;28;20047;-67
2023/10/09 16:09:02;;;;;;;5.93;3.92;;;15.00;99.90;;;;;;5228027;28;20051;-67